sensor_id;sensor_type;location;lat;lon;timestamp;P1;durP1;ratioP1;P2;durP2;ratioP2
55067;SDS011;40965;52.368;9.712;2023-12-20T00:00:22;7.93;;;5.15;;
55067;SDS011;40965;52.368;9.712;2023-12-20T00:02:52;8.57;;;5.63;;
55067;SDS011;40965;52.368;9.712;2023-12-20T00:05:22;8.75;;;5.60;;
55067;SDS011;40965;52.368;9.712;2023-12-20T00:07:52;8.57;;;6.43;;
55067;SDS011;40965;52.368;9.712;2023-12-20T00:10:19;9.48;;;6.63;;
55067;SDS011;40965;52.368;9.712;2023-12-20T00:12:48;12.00;;;6.15;;
55067;SDS011;40965;52.368;9.712;2023-12-20T00:15:15;10.60;;;5.65;;
55067;SDS011;40965;52.368;9.712;2023-12-20T00:17:42;11.18;;;5.70;;
55067;SDS011;40965;52.368;9.712;2023-12-20T00:20:11;12.38;;;4.90;;
55067;SDS011;40965;52.368;9.712;2023-12-20T00:22:38;11.82;;;4.63;;
55067;SDS011;40965;52.368;9.712;2023-12-20T00:25:05;9.63;;;4.43;;
55067;SDS011;40965;52.368;9.712;2023-12-20T00:27:33;9.45;;;3.83;;
55067;SDS011;40965;52.368;9.712;2023-12-20T00:30:05;7.05;;;2.90;;
55067;SDS011;40965;52.368;9.712;2023-12-20T00:32:39;6.00;;;3.78;;
55067;SDS011;40965;52.368;9.712;2023-12-20T00:35:11;9.10;;;3.35;;
55067;SDS011;40965;52.368;9.712;2023-12-20T00:37:45;9.38;;;3.20;;
55067;SDS011;40965;52.368;9.712;2023-12-20T00:40:11;7.05;;;2.85;;
55067;SDS011;40965;52.368;9.712;2023-12-20T00:42:41;6.22;;;3.85;;
55067;SDS011;40965;52.368;9.712;2023-12-20T00:45:12;7.47;;;4.03;;
55067;SDS011;40965;52.368;9.712;2023-12-20T00:47:39;12.57;;;3.42;;
55067;SDS011;40965;52.368;9.712;2023-12-20T00:50:09;8.43;;;3.75;;
55067;SDS011;40965;52.368;9.712;2023-12-20T00:52:36;10.85;;;5.55;;
55067;SDS011;40965;52.368;9.712;2023-12-20T00:55:03;6.82;;;3.03;;
55067;SDS011;40965;52.368;9.712;2023-12-20T00:57:31;5.88;;;2.28;;
55067;SDS011;40965;52.368;9.712;2023-12-20T00:59:58;9.93;;;2.67;;
55067;SDS011;40965;52.368;9.712;2023-12-20T01:02:27;7.07;;;2.33;;
55067;SDS011;40965;52.368;9.712;2023-12-20T01:04:54;9.00;;;3.05;;
55067;SDS011;40965;52.368;9.712;2023-12-20T01:07:23;7.47;;;2.03;;
55067;SDS011;40965;52.368;9.712;2023-12-20T01:09:50;4.57;;;2.08;;
55067;SDS011;40965;52.368;9.712;2023-12-20T01:12:26;8.60;;;2.05;;
55067;SDS011;40965;52.368;9.712;2023-12-20T01:14:53;6.90;;;1.67;;
55067;SDS011;40965;52.368;9.712;2023-12-20T01:17:23;6.05;;;2.00;;
55067;SDS011;40965;52.368;9.712;2023-12-20T01:19:50;6.47;;;2.28;;
55067;SDS011;40965;52.368;9.712;2023-12-20T01:22:17;6.93;;;2.33;;
55067;SDS011;40965;52.368;9.712;2023-12-20T01:24:44;11.68;;;2.20;;
55067;SDS011;40965;52.368;9.712;2023-12-20T01:27:11;15.25;;;3.53;;
55067;SDS011;40965;52.368;9.712;2023-12-20T01:29:37;6.03;;;1.75;;
55067;SDS011;40965;52.368;9.712;2023-12-20T01:32:04;8.15;;;1.90;;
55067;SDS011;40965;52.368;9.712;2023-12-20T01:34:34;4.43;;;1.38;;
55067;SDS011;40965;52.368;9.712;2023-12-20T01:37:06;6.30;;;2.33;;
55067;SDS011;40965;52.368;9.712;2023-12-20T01:39:33;10.30;;;2.40;;
55067;SDS011;40965;52.368;9.712;2023-12-20T01:42:10;11.02;;;2.25;;
55067;SDS011;40965;52.368;9.712;2023-12-20T01:44:42;9.05;;;1.95;;
55067;SDS011;40965;52.368;9.712;2023-12-20T01:47:13;7.10;;;2.97;;
55067;SDS011;40965;52.368;9.712;2023-12-20T01:49:40;7.47;;;3.45;;
55067;SDS011;40965;52.368;9.712;2023-12-20T01:52:06;11.32;;;2.15;;
55067;SDS011;40965;52.368;9.712;2023-12-20T01:54:34;4.53;;;2.17;;
55067;SDS011;40965;52.368;9.712;2023-12-20T01:57:06;5.20;;;2.28;;
55067;SDS011;40965;52.368;9.712;2023-12-20T01:59:37;6.35;;;1.83;;
55067;SDS011;40965;52.368;9.712;2023-12-20T02:02:06;6.25;;;2.03;;
55067;SDS011;40965;52.368;9.712;2023-12-20T02:04:34;5.55;;;1.98;;
55067;SDS011;40965;52.368;9.712;2023-12-20T02:07:03;5.03;;;2.22;;
55067;SDS011;40965;52.368;9.712;2023-12-20T02:09:30;9.85;;;1.73;;
55067;SDS011;40965;52.368;9.712;2023-12-20T02:11:58;14.10;;;2.88;;
55067;SDS011;40965;52.368;9.712;2023-12-20T02:14:28;4.40;;;1.40;;
55067;SDS011;40965;52.368;9.712;2023-12-20T02:16:54;4.97;;;1.30;;
55067;SDS011;40965;52.368;9.712;2023-12-20T02:19:24;4.38;;;1.67;;
55067;SDS011;40965;52.368;9.712;2023-12-20T02:21:51;8.95;;;2.42;;
55067;SDS011;40965;52.368;9.712;2023-12-20T02:24:35;6.38;;;2.28;;
55067;SDS011;40965;52.368;9.712;2023-12-20T02:27:02;10.27;;;2.28;;
55067;SDS011;40965;52.368;9.712;2023-12-20T02:29:35;6.95;;;2.05;;
55067;SDS011;40965;52.368;9.712;2023-12-20T02:32:03;8.65;;;2.30;;
55067;SDS011;40965;52.368;9.712;2023-12-20T02:34:31;13.18;;;2.00;;
55067;SDS011;40965;52.368;9.712;2023-12-20T02:36:58;5.72;;;3.25;;
55067;SDS011;40965;52.368;9.712;2023-12-20T02:39:25;5.28;;;1.92;;
55067;SDS011;40965;52.368;9.712;2023-12-20T02:41:52;13.27;;;2.28;;
55067;SDS011;40965;52.368;9.712;2023-12-20T02:44:18;7.97;;;3.00;;
55067;SDS011;40965;52.368;9.712;2023-12-20T02:46:45;4.03;;;2.22;;
55067;SDS011;40965;52.368;9.712;2023-12-20T02:49:15;9.02;;;2.45;;
55067;SDS011;40965;52.368;9.712;2023-12-20T02:51:42;7.00;;;2.15;;
55067;SDS011;40965;52.368;9.712;2023-12-20T02:54:08;6.38;;;2.25;;
55067;SDS011;40965;52.368;9.712;2023-12-20T02:56:38;9.60;;;2.40;;
55067;SDS011;40965;52.368;9.712;2023-12-20T02:59:07;4.35;;;2.03;;
55067;SDS011;40965;52.368;9.712;2023-12-20T03:01:43;2.53;;;1.80;;
55067;SDS011;40965;52.368;9.712;2023-12-20T03:04:11;6.68;;;1.75;;
55067;SDS011;40965;52.368;9.712;2023-12-20T03:06:38;10.07;;;2.00;;
55067;SDS011;40965;52.368;9.712;2023-12-20T03:09:05;4.53;;;1.50;;
55067;SDS011;40965;52.368;9.712;2023-12-20T03:11:34;13.48;;;2.22;;
55067;SDS011;40965;52.368;9.712;2023-12-20T03:14:04;9.30;;;2.33;;
55067;SDS011;40965;52.368;9.712;2023-12-20T03:16:32;5.32;;;1.30;;
55067;SDS011;40965;52.368;9.712;2023-12-20T03:19:02;5.38;;;1.33;;
55067;SDS011;40965;52.368;9.712;2023-12-20T03:21:31;3.83;;;1.23;;
55067;SDS011;40965;52.368;9.712;2023-12-20T03:24:00;7.55;;;1.50;;
55067;SDS011;40965;52.368;9.712;2023-12-20T03:26:29;8.40;;;2.03;;
55067;SDS011;40965;52.368;9.712;2023-12-20T03:29:01;10.10;;;1.20;;
55067;SDS011;40965;52.368;9.712;2023-12-20T03:31:31;21.15;;;1.77;;
55067;SDS011;40965;52.368;9.712;2023-12-20T03:34:01;5.97;;;1.05;;
55067;SDS011;40965;52.368;9.712;2023-12-20T03:36:31;1.95;;;1.02;;
55067;SDS011;40965;52.368;9.712;2023-12-20T03:39:01;3.92;;;0.80;;
55067;SDS011;40965;52.368;9.712;2023-12-20T03:41:30;5.32;;;1.02;;
55067;SDS011;40965;52.368;9.712;2023-12-20T03:43:57;4.82;;;1.58;;
55067;SDS011;40965;52.368;9.712;2023-12-20T03:46:27;4.60;;;0.93;;
55067;SDS011;40965;52.368;9.712;2023-12-20T03:48:54;5.95;;;1.40;;
55067;SDS011;40965;52.368;9.712;2023-12-20T03:51:20;15.48;;;2.00;;
55067;SDS011;40965;52.368;9.712;2023-12-20T03:53:50;8.80;;;1.23;;
55067;SDS011;40965;52.368;9.712;2023-12-20T03:56:20;6.40;;;1.40;;
55067;SDS011;40965;52.368;9.712;2023-12-20T03:58:47;11.07;;;2.75;;
55067;SDS011;40965;52.368;9.712;2023-12-20T04:01:15;5.85;;;1.00;;
55067;SDS011;40965;52.368;9.712;2023-12-20T04:03:46;9.50;;;1.60;;
55067;SDS011;40965;52.368;9.712;2023-12-20T04:06:19;8.15;;;1.30;;
55067;SDS011;40965;52.368;9.712;2023-12-20T04:08:46;8.73;;;1.30;;
55067;SDS011;40965;52.368;9.712;2023-12-20T04:11:17;9.25;;;1.35;;
55067;SDS011;40965;52.368;9.712;2023-12-20T04:13:51;6.45;;;1.33;;
55067;SDS011;40965;52.368;9.712;2023-12-20T04:16:19;5.28;;;1.30;;
55067;SDS011;40965;52.368;9.712;2023-12-20T04:18:48;10.82;;;3.92;;
55067;SDS011;40965;52.368;9.712;2023-12-20T04:21:23;6.30;;;1.23;;
55067;SDS011;40965;52.368;9.712;2023-12-20T04:23:50;6.13;;;1.45;;
55067;SDS011;40965;52.368;9.712;2023-12-20T04:26:17;4.75;;;1.90;;
55067;SDS011;40965;52.368;9.712;2023-12-20T04:28:44;13.93;;;2.15;;
55067;SDS011;40965;52.368;9.712;2023-12-20T04:31:10;9.00;;;1.98;;
55067;SDS011;40965;52.368;9.712;2023-12-20T04:33:37;11.98;;;1.88;;
55067;SDS011;40965;52.368;9.712;2023-12-20T04:36:03;6.28;;;1.38;;
55067;SDS011;40965;52.368;9.712;2023-12-20T04:38:30;5.82;;;1.33;;
55067;SDS011;40965;52.368;9.712;2023-12-20T04:40:57;2.53;;;1.65;;
55067;SDS011;40965;52.368;9.712;2023-12-20T04:43:24;6.85;;;1.98;;
55067;SDS011;40965;52.368;9.712;2023-12-20T04:45:50;9.93;;;2.33;;
55067;SDS011;40965;52.368;9.712;2023-12-20T04:48:17;9.20;;;1.55;;
55067;SDS011;40965;52.368;9.712;2023-12-20T04:50:44;6.72;;;1.67;;
55067;SDS011;40965;52.368;9.712;2023-12-20T04:53:15;10.23;;;2.17;;
55067;SDS011;40965;52.368;9.712;2023-12-20T04:55:45;5.15;;;1.75;;
55067;SDS011;40965;52.368;9.712;2023-12-20T04:58:19;10.65;;;2.45;;
55067;SDS011;40965;52.368;9.712;2023-12-20T05:00:49;7.88;;;1.63;;
55067;SDS011;40965;52.368;9.712;2023-12-20T05:03:15;6.30;;;2.00;;
55067;SDS011;40965;52.368;9.712;2023-12-20T05:05:45;15.05;;;2.13;;
55067;SDS011;40965;52.368;9.712;2023-12-20T05:08:14;10.65;;;1.77;;
55067;SDS011;40965;52.368;9.712;2023-12-20T05:10:40;8.93;;;2.00;;
55067;SDS011;40965;52.368;9.712;2023-12-20T05:13:08;7.53;;;1.98;;
55067;SDS011;40965;52.368;9.712;2023-12-20T05:15:34;5.18;;;2.25;;
55067;SDS011;40965;52.368;9.712;2023-12-20T05:18:01;11.85;;;2.20;;
55067;SDS011;40965;52.368;9.712;2023-12-20T05:20:28;8.50;;;2.17;;
55067;SDS011;40965;52.368;9.712;2023-12-20T05:22:54;12.75;;;2.10;;
55067;SDS011;40965;52.368;9.712;2023-12-20T05:25:21;12.05;;;3.85;;
55067;SDS011;40965;52.368;9.712;2023-12-20T05:27:59;17.27;;;2.40;;
55067;SDS011;40965;52.368;9.712;2023-12-20T05:30:35;9.38;;;2.92;;
55067;SDS011;40965;52.368;9.712;2023-12-20T05:33:10;10.50;;;2.47;;
55067;SDS011;40965;52.368;9.712;2023-12-20T05:35:37;10.05;;;2.75;;
55067;SDS011;40965;52.368;9.712;2023-12-20T05:38:03;6.90;;;2.70;;
55067;SDS011;40965;52.368;9.712;2023-12-20T05:40:30;14.52;;;2.63;;
55067;SDS011;40965;52.368;9.712;2023-12-20T05:42:56;12.07;;;2.53;;
55067;SDS011;40965;52.368;9.712;2023-12-20T05:45:25;6.15;;;2.22;;
55067;SDS011;40965;52.368;9.712;2023-12-20T05:47:52;12.27;;;3.05;;
55067;SDS011;40965;52.368;9.712;2023-12-20T05:50:18;8.82;;;2.25;;
55067;SDS011;40965;52.368;9.712;2023-12-20T05:52:46;7.03;;;2.05;;
55067;SDS011;40965;52.368;9.712;2023-12-20T05:55:15;9.50;;;2.58;;
55067;SDS011;40965;52.368;9.712;2023-12-20T05:57:42;4.68;;;1.95;;
55067;SDS011;40965;52.368;9.712;2023-12-20T06:00:09;10.32;;;3.35;;
55067;SDS011;40965;52.368;9.712;2023-12-20T06:02:37;16.90;;;2.28;;
55067;SDS011;40965;52.368;9.712;2023-12-20T06:05:06;15.82;;;2.33;;
55067;SDS011;40965;52.368;9.712;2023-12-20T06:07:35;6.85;;;2.83;;
55067;SDS011;40965;52.368;9.712;2023-12-20T06:10:02;9.93;;;3.15;;
55067;SDS011;40965;52.368;9.712;2023-12-20T06:12:31;8.65;;;2.83;;
55067;SDS011;40965;52.368;9.712;2023-12-20T06:15:00;11.00;;;2.63;;
55067;SDS011;40965;52.368;9.712;2023-12-20T06:17:30;5.15;;;1.88;;
55067;SDS011;40965;52.368;9.712;2023-12-20T06:19:58;7.13;;;2.05;;
55067;SDS011;40965;52.368;9.712;2023-12-20T06:22:24;11.05;;;2.92;;
55067;SDS011;40965;52.368;9.712;2023-12-20T06:24:51;9.98;;;2.65;;
55067;SDS011;40965;52.368;9.712;2023-12-20T06:27:18;7.78;;;3.03;;
55067;SDS011;40965;52.368;9.712;2023-12-20T06:29:44;16.15;;;4.20;;
55067;SDS011;40965;52.368;9.712;2023-12-20T06:32:11;11.80;;;2.97;;
55067;SDS011;40965;52.368;9.712;2023-12-20T06:34:37;15.73;;;2.92;;
55067;SDS011;40965;52.368;9.712;2023-12-20T06:37:04;9.80;;;2.95;;
55067;SDS011;40965;52.368;9.712;2023-12-20T06:39:31;21.73;;;3.80;;
55067;SDS011;40965;52.368;9.712;2023-12-20T06:41:59;10.15;;;2.65;;
55067;SDS011;40965;52.368;9.712;2023-12-20T06:44:26;15.93;;;2.88;;
55067;SDS011;40965;52.368;9.712;2023-12-20T06:46:52;11.40;;;2.80;;
55067;SDS011;40965;52.368;9.712;2023-12-20T06:49:19;12.02;;;2.47;;
55067;SDS011;40965;52.368;9.712;2023-12-20T06:51:48;16.08;;;4.55;;
55067;SDS011;40965;52.368;9.712;2023-12-20T06:54:15;9.40;;;2.75;;
55067;SDS011;40965;52.368;9.712;2023-12-20T06:56:41;11.20;;;3.40;;
55067;SDS011;40965;52.368;9.712;2023-12-20T06:59:08;6.25;;;2.13;;
55067;SDS011;40965;52.368;9.712;2023-12-20T07:01:35;14.40;;;3.05;;
55067;SDS011;40965;52.368;9.712;2023-12-20T07:04:01;15.02;;;3.83;;
55067;SDS011;40965;52.368;9.712;2023-12-20T07:06:28;15.38;;;3.33;;
55067;SDS011;40965;52.368;9.712;2023-12-20T07:08:56;6.53;;;3.10;;
55067;SDS011;40965;52.368;9.712;2023-12-20T07:11:23;12.23;;;3.08;;
55067;SDS011;40965;52.368;9.712;2023-12-20T07:13:53;8.82;;;2.53;;
55067;SDS011;40965;52.368;9.712;2023-12-20T07:16:23;8.93;;;3.55;;
55067;SDS011;40965;52.368;9.712;2023-12-20T07:18:52;16.73;;;2.83;;
55067;SDS011;40965;52.368;9.712;2023-12-20T07:21:22;16.38;;;2.80;;
55067;SDS011;40965;52.368;9.712;2023-12-20T07:23:51;15.25;;;3.42;;
55067;SDS011;40965;52.368;9.712;2023-12-20T07:26:20;17.58;;;5.20;;
55067;SDS011;40965;52.368;9.712;2023-12-20T07:28:51;9.02;;;2.72;;
55067;SDS011;40965;52.368;9.712;2023-12-20T07:31:23;17.08;;;3.15;;
55067;SDS011;40965;52.368;9.712;2023-12-20T07:33:53;10.63;;;3.50;;
55067;SDS011;40965;52.368;9.712;2023-12-20T07:36:20;12.52;;;5.22;;
55067;SDS011;40965;52.368;9.712;2023-12-20T07:38:52;11.13;;;4.68;;
55067;SDS011;40965;52.368;9.712;2023-12-20T07:41:18;18.73;;;5.00;;
55067;SDS011;40965;52.368;9.712;2023-12-20T07:43:46;9.57;;;3.20;;
55067;SDS011;40965;52.368;9.712;2023-12-20T07:46:20;11.80;;;3.85;;
55067;SDS011;40965;52.368;9.712;2023-12-20T07:48:51;17.35;;;5.03;;
55067;SDS011;40965;52.368;9.712;2023-12-20T07:51:23;10.50;;;3.25;;
55067;SDS011;40965;52.368;9.712;2023-12-20T07:53:51;6.22;;;1.77;;
55067;SDS011;40965;52.368;9.712;2023-12-20T07:56:18;6.88;;;2.55;;
55067;SDS011;40965;52.368;9.712;2023-12-20T07:58:47;14.82;;;3.65;;
55067;SDS011;40965;52.368;9.712;2023-12-20T08:01:15;18.98;;;2.90;;
55067;SDS011;40965;52.368;9.712;2023-12-20T08:03:42;7.85;;;2.83;;
55067;SDS011;40965;52.368;9.712;2023-12-20T08:06:09;14.52;;;3.47;;
55067;SDS011;40965;52.368;9.712;2023-12-20T08:08:42;11.75;;;3.40;;
55067;SDS011;40965;52.368;9.712;2023-12-20T08:11:11;12.05;;;2.38;;
55067;SDS011;40965;52.368;9.712;2023-12-20T08:13:41;11.32;;;4.78;;
55067;SDS011;40965;52.368;9.712;2023-12-20T08:16:11;7.78;;;3.58;;
55067;SDS011;40965;52.368;9.712;2023-12-20T08:18:41;14.32;;;3.50;;
55067;SDS011;40965;52.368;9.712;2023-12-20T08:21:08;12.10;;;3.55;;
55067;SDS011;40965;52.368;9.712;2023-12-20T08:23:39;12.43;;;4.60;;
55067;SDS011;40965;52.368;9.712;2023-12-20T08:26:06;10.77;;;3.67;;
55067;SDS011;40965;52.368;9.712;2023-12-20T08:28:34;13.93;;;3.03;;
55067;SDS011;40965;52.368;9.712;2023-12-20T08:31:02;9.35;;;3.00;;
55067;SDS011;40965;52.368;9.712;2023-12-20T08:33:28;15.52;;;3.63;;
55067;SDS011;40965;52.368;9.712;2023-12-20T08:35:55;11.10;;;2.72;;
55067;SDS011;40965;52.368;9.712;2023-12-20T08:38:28;15.43;;;3.10;;
55067;SDS011;40965;52.368;9.712;2023-12-20T08:40:54;8.85;;;3.03;;
55067;SDS011;40965;52.368;9.712;2023-12-20T08:43:21;11.80;;;3.28;;
55067;SDS011;40965;52.368;9.712;2023-12-20T08:45:51;10.75;;;2.47;;
55067;SDS011;40965;52.368;9.712;2023-12-20T08:48:18;12.40;;;3.95;;
55067;SDS011;40965;52.368;9.712;2023-12-20T08:50:48;10.18;;;2.58;;
55067;SDS011;40965;52.368;9.712;2023-12-20T08:53:24;9.50;;;2.97;;
55067;SDS011;40965;52.368;9.712;2023-12-20T08:55:50;12.13;;;3.20;;
55067;SDS011;40965;52.368;9.712;2023-12-20T08:58:26;13.50;;;2.88;;
55067;SDS011;40965;52.368;9.712;2023-12-20T09:00:56;9.30;;;3.22;;
55067;SDS011;40965;52.368;9.712;2023-12-20T09:03:22;10.05;;;3.22;;
55067;SDS011;40965;52.368;9.712;2023-12-20T09:05:49;13.50;;;3.03;;
55067;SDS011;40965;52.368;9.712;2023-12-20T09:08:16;10.85;;;2.70;;
55067;SDS011;40965;52.368;9.712;2023-12-20T09:10:43;7.18;;;2.67;;
55067;SDS011;40965;52.368;9.712;2023-12-20T09:13:10;10.68;;;3.00;;
55067;SDS011;40965;52.368;9.712;2023-12-20T09:15:36;15.25;;;3.00;;
55067;SDS011;40965;52.368;9.712;2023-12-20T09:18:06;6.97;;;2.25;;
55067;SDS011;40965;52.368;9.712;2023-12-20T09:20:33;13.02;;;2.58;;
55067;SDS011;40965;52.368;9.712;2023-12-20T09:23:00;7.68;;;2.42;;
55067;SDS011;40965;52.368;9.712;2023-12-20T09:25:32;5.85;;;2.42;;
55067;SDS011;40965;52.368;9.712;2023-12-20T09:27:59;8.30;;;2.70;;
55067;SDS011;40965;52.368;9.712;2023-12-20T09:30:27;10.38;;;2.60;;
55067;SDS011;40965;52.368;9.712;2023-12-20T09:32:54;12.73;;;3.88;;
55067;SDS011;40965;52.368;9.712;2023-12-20T09:35:21;15.48;;;3.80;;
55067;SDS011;40965;52.368;9.712;2023-12-20T09:37:48;8.13;;;4.18;;
55067;SDS011;40965;52.368;9.712;2023-12-20T09:40:18;13.85;;;3.03;;
55067;SDS011;40965;52.368;9.712;2023-12-20T09:45:31;14.93;;;3.15;;
55067;SDS011;40965;52.368;9.712;2023-12-20T09:48:00;15.48;;;3.25;;
55067;SDS011;40965;52.368;9.712;2023-12-20T09:50:30;5.30;;;2.17;;
55067;SDS011;40965;52.368;9.712;2023-12-20T09:52:57;12.10;;;2.67;;
55067;SDS011;40965;52.368;9.712;2023-12-20T09:55:30;10.13;;;3.03;;
55067;SDS011;40965;52.368;9.712;2023-12-20T09:57:59;10.93;;;3.58;;
55067;SDS011;40965;52.368;9.712;2023-12-20T10:00:27;12.27;;;3.10;;
55067;SDS011;40965;52.368;9.712;2023-12-20T10:05:28;8.48;;;2.53;;
55067;SDS011;40965;52.368;9.712;2023-12-20T10:08:00;7.78;;;2.15;;
55067;SDS011;40965;52.368;9.712;2023-12-20T10:10:27;10.15;;;2.67;;
55067;SDS011;40965;52.368;9.712;2023-12-20T10:13:04;11.65;;;3.42;;
55067;SDS011;40965;52.368;9.712;2023-12-20T10:15:35;10.32;;;2.72;;
55067;SDS011;40965;52.368;9.712;2023-12-20T10:18:08;7.78;;;2.40;;
55067;SDS011;40965;52.368;9.712;2023-12-20T10:20:34;5.30;;;2.05;;
55067;SDS011;40965;52.368;9.712;2023-12-20T10:23:04;11.13;;;2.28;;
55067;SDS011;40965;52.368;9.712;2023-12-20T10:25:31;10.45;;;2.15;;
55067;SDS011;40965;52.368;9.712;2023-12-20T10:28:14;9.80;;;2.28;;
55067;SDS011;40965;52.368;9.712;2023-12-20T10:30:44;8.65;;;2.03;;
55067;SDS011;40965;52.368;9.712;2023-12-20T10:33:10;10.90;;;3.13;;
55067;SDS011;40965;52.368;9.712;2023-12-20T10:35:40;9.73;;;3.60;;
55067;SDS011;40965;52.368;9.712;2023-12-20T10:38:07;8.20;;;2.67;;
55067;SDS011;40965;52.368;9.712;2023-12-20T10:40:36;8.18;;;2.45;;
55067;SDS011;40965;52.368;9.712;2023-12-20T10:43:03;12.80;;;2.40;;
55067;SDS011;40965;52.368;9.712;2023-12-20T10:45:31;8.98;;;2.35;;
55067;SDS011;40965;52.368;9.712;2023-12-20T10:47:58;19.92;;;4.40;;
55067;SDS011;40965;52.368;9.712;2023-12-20T10:50:26;8.20;;;2.33;;
55067;SDS011;40965;52.368;9.712;2023-12-20T10:52:55;10.95;;;2.83;;
55067;SDS011;40965;52.368;9.712;2023-12-20T10:55:25;8.38;;;2.65;;
55067;SDS011;40965;52.368;9.712;2023-12-20T10:57:53;10.15;;;2.63;;
55067;SDS011;40965;52.368;9.712;2023-12-20T11:00:26;9.45;;;2.30;;
55067;SDS011;40965;52.368;9.712;2023-12-20T11:03:02;7.68;;;3.03;;
55067;SDS011;40965;52.368;9.712;2023-12-20T11:05:33;12.40;;;3.00;;
55067;SDS011;40965;52.368;9.712;2023-12-20T11:08:16;7.00;;;1.95;;
55067;SDS011;40965;52.368;9.712;2023-12-20T11:11:02;7.47;;;2.40;;
55067;SDS011;40965;52.368;9.712;2023-12-20T11:13:36;8.95;;;2.45;;
55067;SDS011;40965;52.368;9.712;2023-12-20T11:16:08;6.13;;;2.58;;
55067;SDS011;40965;52.368;9.712;2023-12-20T11:18:35;6.15;;;2.17;;
55067;SDS011;40965;52.368;9.712;2023-12-20T11:21:02;6.88;;;2.50;;
55067;SDS011;40965;52.368;9.712;2023-12-20T11:23:35;2.60;;;1.73;;
55067;SDS011;40965;52.368;9.712;2023-12-20T11:26:02;9.65;;;2.53;;
55067;SDS011;40965;52.368;9.712;2023-12-20T11:28:29;3.53;;;2.33;;
55067;SDS011;40965;52.368;9.712;2023-12-20T11:30:56;7.18;;;1.95;;
55067;SDS011;40965;52.368;9.712;2023-12-20T11:33:26;8.75;;;3.20;;
55067;SDS011;40965;52.368;9.712;2023-12-20T11:35:59;6.82;;;2.63;;
55067;SDS011;40965;52.368;9.712;2023-12-20T11:38:26;11.95;;;2.95;;
55067;SDS011;40965;52.368;9.712;2023-12-20T11:40:56;7.18;;;2.50;;
55067;SDS011;40965;52.368;9.712;2023-12-20T11:43:58;8.48;;;2.80;;
55067;SDS011;40965;52.368;9.712;2023-12-20T11:46:22;8.02;;;3.35;;
55067;SDS011;40965;52.368;9.712;2023-12-20T11:48:49;8.27;;;3.03;;
55067;SDS011;40965;52.368;9.712;2023-12-20T11:51:17;6.63;;;1.20;;
55067;SDS011;40965;52.368;9.712;2023-12-20T11:53:44;8.10;;;1.75;;
55067;SDS011;40965;52.368;9.712;2023-12-20T11:56:10;5.88;;;1.00;;
55067;SDS011;40965;52.368;9.712;2023-12-20T11:58:37;2.72;;;1.33;;
55067;SDS011;40965;52.368;9.712;2023-12-20T12:01:04;3.53;;;0.52;;
55067;SDS011;40965;52.368;9.712;2023-12-20T12:03:33;2.10;;;0.57;;
55067;SDS011;40965;52.368;9.712;2023-12-20T12:06:03;1.92;;;0.93;;
55067;SDS011;40965;52.368;9.712;2023-12-20T12:08:30;3.00;;;0.47;;
55067;SDS011;40965;52.368;9.712;2023-12-20T12:11:00;3.58;;;0.40;;
55067;SDS011;40965;52.368;9.712;2023-12-20T12:13:27;0.77;;;0.60;;
55067;SDS011;40965;52.368;9.712;2023-12-20T12:15:54;0.80;;;0.80;;
55067;SDS011;40965;52.368;9.712;2023-12-20T12:18:22;2.67;;;0.65;;
55067;SDS011;40965;52.368;9.712;2023-12-20T12:20:59;1.95;;;0.50;;
55067;SDS011;40965;52.368;9.712;2023-12-20T12:23:30;2.80;;;0.43;;
55067;SDS011;40965;52.368;9.712;2023-12-20T12:25:59;1.48;;;0.65;;
55067;SDS011;40965;52.368;9.712;2023-12-20T12:28:26;0.50;;;0.40;;
55067;SDS011;40965;52.368;9.712;2023-12-20T12:30:58;1.67;;;0.40;;
55067;SDS011;40965;52.368;9.712;2023-12-20T12:33:27;2.97;;;0.40;;
55067;SDS011;40965;52.368;9.712;2023-12-20T12:35:54;2.13;;;0.40;;
55067;SDS011;40965;52.368;9.712;2023-12-20T12:38:21;3.60;;;0.95;;
55067;SDS011;40965;52.368;9.712;2023-12-20T12:40:51;0.60;;;0.35;;
55067;SDS011;40965;52.368;9.712;2023-12-20T12:43:18;5.00;;;0.50;;
55067;SDS011;40965;52.368;9.712;2023-12-20T12:45:48;1.55;;;0.47;;
55067;SDS011;40965;52.368;9.712;2023-12-20T12:48:15;3.08;;;0.43;;
55067;SDS011;40965;52.368;9.712;2023-12-20T12:50:42;1.95;;;0.45;;
55067;SDS011;40965;52.368;9.712;2023-12-20T12:53:11;1.02;;;0.43;;
55067;SDS011;40965;52.368;9.712;2023-12-20T12:55:40;2.42;;;0.43;;
55067;SDS011;40965;52.368;9.712;2023-12-20T12:58:07;4.15;;;0.55;;
55067;SDS011;40965;52.368;9.712;2023-12-20T13:00:34;1.90;;;0.63;;
55067;SDS011;40965;52.368;9.712;2023-12-20T13:03:00;1.83;;;0.80;;
55067;SDS011;40965;52.368;9.712;2023-12-20T13:05:27;4.35;;;0.60;;
55067;SDS011;40965;52.368;9.712;2023-12-20T13:07:53;2.75;;;0.68;;
55067;SDS011;40965;52.368;9.712;2023-12-20T13:10:20;12.60;;;0.80;;
55067;SDS011;40965;52.368;9.712;2023-12-20T13:12:47;2.25;;;0.70;;
55067;SDS011;40965;52.368;9.712;2023-12-20T13:15:14;2.20;;;0.55;;
55067;SDS011;40965;52.368;9.712;2023-12-20T13:17:41;0.57;;;0.52;;
55067;SDS011;40965;52.368;9.712;2023-12-20T13:20:12;2.42;;;0.38;;
55067;SDS011;40965;52.368;9.712;2023-12-20T13:22:38;0.65;;;0.40;;
55067;SDS011;40965;52.368;9.712;2023-12-20T13:25:05;4.13;;;0.73;;
55067;SDS011;40965;52.368;9.712;2023-12-20T13:27:32;1.20;;;0.47;;
55067;SDS011;40965;52.368;9.712;2023-12-20T13:29:59;1.15;;;0.60;;
55067;SDS011;40965;52.368;9.712;2023-12-20T13:32:26;0.70;;;0.70;;
55067;SDS011;40965;52.368;9.712;2023-12-20T13:34:53;2.28;;;0.90;;
55067;SDS011;40965;52.368;9.712;2023-12-20T13:37:25;3.00;;;0.60;;
55067;SDS011;40965;52.368;9.712;2023-12-20T13:39:52;0.82;;;0.82;;
55067;SDS011;40965;52.368;9.712;2023-12-20T13:42:21;2.72;;;0.75;;
55067;SDS011;40965;52.368;9.712;2023-12-20T13:44:49;5.50;;;0.75;;
55067;SDS011;40965;52.368;9.712;2023-12-20T13:47:16;2.33;;;0.80;;
55067;SDS011;40965;52.368;9.712;2023-12-20T13:49:44;0.88;;;0.57;;
55067;SDS011;40965;52.368;9.712;2023-12-20T13:52:11;1.52;;;0.50;;
55067;SDS011;40965;52.368;9.712;2023-12-20T13:54:38;3.33;;;0.60;;
55067;SDS011;40965;52.368;9.712;2023-12-20T13:57:08;2.53;;;0.55;;
55067;SDS011;40965;52.368;9.712;2023-12-20T13:59:34;2.08;;;0.82;;
55067;SDS011;40965;52.368;9.712;2023-12-20T14:02:01;1.23;;;0.70;;
55067;SDS011;40965;52.368;9.712;2023-12-20T14:04:30;3.85;;;1.25;;
55067;SDS011;40965;52.368;9.712;2023-12-20T14:06:57;6.32;;;1.00;;
55067;SDS011;40965;52.368;9.712;2023-12-20T14:09:26;3.35;;;1.48;;
55067;SDS011;40965;52.368;9.712;2023-12-20T14:11:53;4.10;;;0.70;;
55067;SDS011;40965;52.368;9.712;2023-12-20T14:14:20;7.10;;;2.70;;
55067;SDS011;40965;52.368;9.712;2023-12-20T14:16:46;2.00;;;1.17;;
55067;SDS011;40965;52.368;9.712;2023-12-20T14:19:13;1.50;;;0.82;;
55067;SDS011;40965;52.368;9.712;2023-12-20T14:21:40;1.75;;;0.47;;
55067;SDS011;40965;52.368;9.712;2023-12-20T14:24:07;4.53;;;1.10;;
55067;SDS011;40965;52.368;9.712;2023-12-20T14:26:34;3.13;;;0.80;;
55067;SDS011;40965;52.368;9.712;2023-12-20T14:29:02;1.95;;;0.50;;
55067;SDS011;40965;52.368;9.712;2023-12-20T14:31:29;5.70;;;1.10;;
55067;SDS011;40965;52.368;9.712;2023-12-20T14:33:56;1.75;;;0.60;;
55067;SDS011;40965;52.368;9.712;2023-12-20T14:36:24;5.55;;;1.15;;
55067;SDS011;40965;52.368;9.712;2023-12-20T14:38:51;3.60;;;0.60;;
55067;SDS011;40965;52.368;9.712;2023-12-20T14:41:18;8.23;;;1.13;;
55067;SDS011;40965;52.368;9.712;2023-12-20T14:43:48;3.05;;;1.40;;
55067;SDS011;40965;52.368;9.712;2023-12-20T14:46:16;4.00;;;0.90;;
55067;SDS011;40965;52.368;9.712;2023-12-20T14:48:43;2.92;;;1.27;;
55067;SDS011;40965;52.368;9.712;2023-12-20T14:51:10;1.60;;;0.90;;
55067;SDS011;40965;52.368;9.712;2023-12-20T14:53:38;4.95;;;1.48;;
55067;SDS011;40965;52.368;9.712;2023-12-20T14:56:05;5.05;;;1.80;;